createdAt,value
2022-12-11T00:01:22.512Z,22.17
2022-12-11T00:03:49.290Z,24.60
2022-12-11T00:06:18.489Z,23.30
2022-12-11T00:08:44.997Z,23.73
2022-12-11T00:11:13.671Z,23.10
2022-12-11T00:13:40.145Z,20.90
2022-12-11T00:16:06.877Z,20.83
2022-12-11T00:18:40.592Z,22.27
2022-12-11T00:21:14.606Z,21.93
2022-12-11T00:23:41.107Z,20.70
2022-12-11T00:26:10.954Z,21.33
2022-12-11T00:28:37.597Z,22.50
2022-12-11T00:31:09.290Z,23.17
2022-12-11T00:33:35.706Z,25.50
2022-12-11T00:36:02.179Z,26.70
2022-12-11T00:38:28.640Z,25.53
2022-12-11T00:40:59.376Z,25.20
2022-12-11T00:43:25.810Z,24.87
2022-12-11T00:45:52.254Z,25.77
2022-12-11T00:48:18.700Z,25.83
2022-12-11T00:50:45.076Z,26.70
2022-12-11T00:53:11.463Z,25.43
2022-12-11T00:55:40.000Z,24.90
2022-12-11T00:58:07.175Z,25.33
2022-12-11T01:00:34.020Z,22.50
2022-12-11T01:03:00.611Z,22.60
2022-12-11T01:05:27.206Z,23.20
2022-12-11T01:07:53.609Z,24.70
2022-12-11T01:10:26.241Z,23.47
2022-12-11T01:13:06.648Z,25.23
2022-12-11T01:15:44.779Z,27.37
2022-12-11T01:18:13.541Z,27.17
2022-12-11T01:20:42.943Z,27.93
2022-12-11T01:23:12.377Z,25.90
2022-12-11T01:25:39.195Z,26.97
2022-12-11T01:28:06.445Z,28.37
2022-12-11T01:30:33.455Z,28.27
2022-12-11T01:33:00.773Z,26.30
2022-12-11T01:35:27.951Z,25.43
2022-12-11T01:37:54.457Z,28.27
2022-12-11T01:40:22.064Z,25.50
2022-12-11T01:42:48.842Z,26.10
2022-12-11T01:45:27.430Z,25.30
2022-12-11T01:48:04.252Z,24.33
2022-12-11T01:50:34.711Z,25.70
2022-12-11T01:53:02.269Z,26.47
2022-12-11T01:55:28.782Z,26.60
2022-12-11T01:57:55.249Z,25.87
2022-12-11T02:00:22.051Z,26.70
2022-12-11T02:02:48.597Z,28.43
2022-12-11T02:05:15.095Z,25.90
2022-12-11T02:07:46.511Z,26.47
2022-12-11T02:10:13.971Z,27.47
2022-12-11T02:13:00.907Z,26.50
2022-12-11T02:15:33.232Z,27.13
2022-12-11T02:18:14.830Z,26.43
2022-12-11T02:20:48.260Z,27.47
2022-12-11T02:23:33.052Z,27.37
2022-12-11T02:26:24.971Z,26.00
2022-12-11T02:28:59.044Z,26.47
2022-12-11T02:32:04.436Z,27.90
2022-12-11T02:34:39.878Z,31.43
2022-12-11T02:37:13.411Z,31.93
2022-12-11T02:39:43.478Z,31.50
2022-12-11T02:42:13.048Z,35.93
2022-12-11T02:44:41.112Z,32.57
2022-12-11T02:47:12.406Z,34.70
2022-12-11T02:49:42.554Z,30.30
2022-12-11T02:52:12.375Z,31.13
2022-12-11T02:54:41.055Z,27.57
2022-12-11T02:57:16.733Z,30.73
2022-12-11T02:59:45.626Z,29.83
2022-12-11T03:02:14.206Z,29.97
2022-12-11T03:04:42.056Z,28.50
2022-12-11T03:07:31.660Z,28.80
2022-12-11T03:09:58.041Z,28.27
2022-12-11T03:12:29.327Z,30.57
2022-12-11T03:14:57.818Z,29.90
2022-12-11T03:17:32.525Z,29.67
2022-12-11T03:20:31.026Z,29.00
2022-12-11T03:23:08.861Z,28.90
2022-12-11T03:25:49.477Z,26.73
2022-12-11T03:28:42.267Z,28.17
2022-12-11T03:31:13.585Z,24.40
2022-12-11T03:33:48.079Z,27.67
2022-12-11T03:36:28.056Z,28.70
2022-12-11T03:39:02.131Z,28.17
2022-12-11T03:41:32.093Z,32.77
2022-12-11T03:43:59.060Z,29.03
2022-12-11T03:46:32.832Z,29.67
2022-12-11T03:49:07.876Z,29.37
2022-12-11T03:51:35.705Z,30.00
2022-12-11T03:54:02.859Z,28.40
2022-12-11T03:56:32.904Z,30.30
2022-12-11T03:58:59.457Z,30.40
2022-12-11T04:01:25.917Z,28.87
2022-12-11T04:03:52.537Z,29.90
2022-12-11T04:06:19.143Z,27.57
2022-12-11T04:08:45.570Z,26.30
2022-12-11T04:11:30.535Z,30.10
2022-12-11T04:14:15.334Z,27.67
2022-12-11T04:16:41.782Z,27.10
2022-12-11T04:19:28.652Z,27.17
2022-12-11T04:22:14.698Z,27.20
2022-12-11T04:24:41.594Z,27.03
2022-12-11T04:27:08.188Z,26.03
2022-12-11T04:29:34.721Z,29.40
2022-12-11T04:32:01.200Z,28.90
2022-12-11T04:34:27.613Z,28.33
2022-12-11T04:36:54.052Z,30.37
2022-12-11T04:39:20.579Z,33.03
2022-12-11T04:41:46.986Z,28.60
2022-12-11T04:44:13.408Z,30.13
2022-12-11T04:46:39.906Z,26.40
2022-12-11T04:49:06.420Z,27.57
2022-12-11T04:51:32.849Z,29.80
2022-12-11T04:53:59.650Z,28.90
2022-12-11T04:56:26.034Z,30.07
2022-12-11T04:58:52.518Z,32.73
2022-12-11T05:01:23.201Z,30.57
2022-12-11T05:03:49.727Z,31.57
2022-12-11T05:06:16.243Z,30.70
2022-12-11T05:08:43.780Z,31.43
2022-12-11T05:11:11.882Z,31.20
2022-12-11T05:13:39.239Z,29.00
2022-12-11T05:16:08.182Z,31.07
2022-12-11T05:18:34.897Z,30.80
2022-12-11T05:21:10.205Z,29.70
2022-12-11T05:23:37.143Z,29.97
2022-12-11T05:26:06.783Z,32.53
2022-12-11T05:28:36.198Z,28.90
2022-12-11T05:31:06.089Z,28.53
2022-12-11T05:33:33.572Z,27.70
2022-12-11T05:36:00.897Z,31.00
2022-12-11T05:38:27.352Z,30.40
2022-12-11T05:41:01.835Z,30.00
2022-12-11T05:43:29.850Z,32.13
2022-12-11T05:45:57.105Z,29.93
2022-12-11T05:48:23.533Z,30.40
2022-12-11T05:50:57.893Z,30.27
2022-12-11T05:53:29.096Z,31.80
2022-12-11T05:55:55.605Z,29.50
2022-12-11T05:58:22.035Z,32.63
2022-12-11T06:00:48.806Z,29.23
2022-12-11T06:03:15.725Z,31.80
2022-12-11T06:05:42.842Z,30.37
2022-12-11T06:08:09.387Z,30.57
2022-12-11T06:10:35.850Z,29.07
2022-12-11T06:13:02.254Z,32.87
2022-12-11T06:15:28.643Z,31.43
2022-12-11T06:17:55.050Z,27.80
2022-12-11T06:20:22.745Z,28.43
2022-12-11T06:22:49.183Z,28.73
2022-12-11T06:25:15.645Z,28.70
2022-12-11T06:27:42.035Z,32.20
2022-12-11T06:30:09.131Z,32.37
2022-12-11T06:32:35.547Z,29.30
2022-12-11T06:35:04.384Z,30.03
2022-12-11T06:37:30.761Z,30.93
2022-12-11T06:39:57.154Z,30.97
2022-12-11T06:42:23.556Z,31.10
2022-12-11T06:44:50.107Z,30.70
2022-12-11T06:47:16.474Z,30.73
2022-12-11T06:49:44.466Z,33.73
2022-12-11T06:52:16.616Z,34.03
2022-12-11T06:54:45.735Z,28.97
2022-12-11T06:57:12.137Z,31.67
2022-12-11T06:59:38.804Z,31.20
2022-12-11T07:02:05.301Z,32.80
2022-12-11T07:04:34.202Z,30.37
2022-12-11T07:07:01.256Z,30.47
2022-12-11T07:09:28.028Z,32.30
2022-12-11T07:11:54.459Z,30.33
2022-12-11T07:14:20.899Z,31.87
2022-12-11T07:16:47.334Z,29.23
2022-12-11T07:19:14.259Z,31.97
2022-12-11T07:21:40.788Z,31.10
2022-12-11T07:24:08.063Z,29.97
2022-12-11T07:26:34.479Z,31.67
2022-12-11T07:29:01.254Z,31.87
2022-12-11T07:31:29.946Z,32.43
2022-12-11T07:34:00.238Z,32.37
2022-12-11T07:36:27.722Z,31.47
2022-12-11T07:38:54.226Z,33.17
2022-12-11T07:41:20.778Z,30.63
2022-12-11T07:43:47.422Z,31.70
2022-12-11T07:46:18.923Z,34.70
2022-12-11T07:48:47.343Z,36.37
2022-12-11T07:51:20.183Z,34.23
2022-12-11T07:53:50.339Z,31.83
2022-12-11T07:56:18.111Z,36.53
2022-12-11T07:58:45.156Z,33.97
2022-12-11T08:01:28.913Z,34.57
2022-12-11T08:03:56.679Z,30.17
2022-12-11T08:06:31.142Z,33.50
2022-12-11T08:08:58.969Z,30.97
2022-12-11T08:11:26.049Z,30.23
2022-12-11T08:13:52.698Z,32.00
2022-12-11T08:16:20.042Z,35.47
2022-12-11T08:18:47.965Z,58.50
2022-12-11T08:21:23.309Z,37.40
2022-12-11T08:23:50.505Z,39.60
2022-12-11T08:26:23.952Z,41.93
2022-12-11T08:28:50.483Z,47.43
2022-12-11T08:31:17.947Z,57.00
2022-12-11T08:33:45.434Z,45.50
2022-12-11T08:36:15.015Z,38.47
2022-12-11T08:38:42.336Z,34.90
2022-12-11T08:41:09.770Z,34.27
2022-12-11T08:43:36.517Z,31.83
2022-12-11T08:46:03.358Z,31.97
2022-12-11T08:48:29.866Z,30.13
2022-12-11T08:51:02.938Z,32.90
2022-12-11T08:53:30.472Z,31.83
2022-12-11T08:56:07.685Z,31.77
2022-12-11T08:58:34.344Z,30.37
2022-12-11T09:01:00.874Z,30.10
2022-12-11T09:03:27.301Z,33.00
2022-12-11T09:05:53.707Z,34.30
2022-12-11T09:08:20.155Z,33.37
2022-12-11T09:10:46.626Z,30.47
2022-12-11T09:13:12.980Z,30.67
2022-12-11T09:15:42.473Z,29.40
2022-12-11T09:18:09.381Z,33.10
2022-12-11T09:20:35.845Z,33.40
2022-12-11T09:23:02.742Z,31.30
2022-12-11T09:25:29.209Z,32.80
2022-12-11T09:27:55.634Z,31.43
2022-12-11T09:30:22.015Z,31.23
2022-12-11T09:32:48.398Z,29.80
2022-12-11T09:35:14.835Z,29.17
2022-12-11T09:37:41.216Z,32.27
2022-12-11T09:40:11.315Z,30.00
2022-12-11T09:43:00.297Z,34.40
2022-12-11T09:45:26.836Z,32.20
2022-12-11T09:47:56.217Z,30.30
2022-12-11T09:50:29.963Z,30.70
2022-12-11T09:53:33.936Z,29.93
2022-12-11T09:56:06.945Z,28.50
2022-12-11T09:58:55.074Z,29.33
2022-12-11T10:01:31.969Z,30.40
2022-12-11T10:04:17.015Z,28.77
2022-12-11T10:06:58.491Z,29.70
2022-12-11T10:09:43.356Z,28.33
2022-12-11T10:12:32.290Z,29.20
2022-12-11T10:15:31.714Z,27.07
2022-12-11T10:18:04.841Z,28.30
2022-12-11T10:20:39.234Z,29.23
2022-12-11T10:23:16.476Z,30.30
2022-12-11T10:26:03.947Z,28.00
2022-12-11T10:28:30.485Z,28.20
2022-12-11T10:31:19.783Z,29.10
2022-12-11T10:34:02.813Z,27.50
2022-12-11T10:36:38.748Z,25.40
2022-12-11T10:39:16.658Z,26.23
2022-12-11T10:41:45.998Z,26.63
2022-12-11T10:44:32.719Z,27.87
2022-12-11T10:47:16.192Z,25.97
2022-12-11T10:49:58.331Z,25.73
2022-12-11T10:52:32.198Z,27.93
2022-12-11T10:55:02.336Z,26.73
2022-12-11T10:57:31.978Z,26.70
2022-12-11T10:59:59.695Z,25.77
2022-12-11T11:02:31.257Z,25.80
2022-12-11T11:05:00.131Z,27.63
2022-12-11T11:07:31.491Z,26.00
2022-12-11T11:10:27.419Z,27.93
2022-12-11T11:13:01.635Z,24.40
2022-12-11T11:15:31.294Z,26.60
2022-12-11T11:18:09.872Z,26.70
2022-12-11T11:20:36.305Z,26.33
2022-12-11T11:23:11.851Z,28.20
2022-12-11T11:25:38.325Z,27.23
2022-12-11T11:28:17.866Z,27.13
2022-12-11T11:30:57.251Z,25.93
2022-12-11T11:33:24.433Z,24.10
2022-12-11T11:35:56.309Z,25.10
2022-12-11T11:38:26.749Z,26.30
2022-12-11T11:41:07.626Z,27.00
2022-12-11T11:43:46.524Z,27.23
2022-12-11T11:46:30.732Z,26.93
2022-12-11T11:49:22.983Z,24.47
2022-12-11T11:51:56.416Z,25.07
2022-12-11T11:54:43.010Z,26.73
2022-12-11T11:57:53.027Z,24.60
2022-12-11T12:00:23.073Z,25.70
2022-12-11T12:02:54.554Z,25.53
2022-12-11T12:05:29.000Z,28.40
2022-12-11T12:08:21.277Z,26.03
2022-12-11T12:10:56.527Z,24.90
2022-12-11T12:13:51.758Z,27.73
2022-12-11T12:16:55.624Z,26.90
2022-12-11T12:19:40.730Z,25.47
2022-12-11T12:22:33.395Z,25.17
2022-12-11T12:25:18.265Z,23.70
2022-12-11T12:27:58.394Z,23.73
2022-12-11T12:30:25.557Z,25.93
2022-12-11T12:33:15.184Z,24.30
2022-12-11T12:36:22.984Z,25.30
2022-12-11T12:39:02.239Z,23.47
2022-12-11T12:41:52.069Z,25.13
2022-12-11T12:44:22.122Z,23.70
2022-12-11T12:46:59.256Z,24.23
2022-12-11T12:49:37.101Z,23.73
2022-12-11T12:52:06.175Z,25.40
2022-12-11T12:54:35.397Z,23.10
2022-12-11T12:57:04.105Z,21.80
2022-12-11T12:59:30.573Z,22.30
2022-12-11T13:02:00.144Z,21.60
2022-12-11T13:04:54.997Z,23.23
2022-12-11T13:07:28.399Z,20.80
2022-12-11T13:10:32.125Z,19.33
2022-12-11T13:13:00.013Z,20.10
2022-12-11T13:15:36.239Z,19.13
2022-12-11T13:18:24.644Z,19.57
2022-12-11T13:20:52.064Z,19.90
2022-12-11T13:23:31.170Z,20.07
2022-12-11T13:26:03.163Z,18.80
2022-12-11T13:28:31.451Z,19.20
2022-12-11T13:31:00.647Z,18.43
2022-12-11T13:33:29.955Z,19.77
2022-12-11T13:36:24.335Z,19.03
2022-12-11T13:39:15.415Z,20.27
2022-12-11T13:41:46.636Z,19.13
2022-12-11T13:44:23.262Z,20.90
2022-12-11T13:46:52.122Z,20.63
2022-12-11T13:49:26.373Z,23.10
2022-12-11T13:51:55.270Z,19.20
2022-12-11T13:54:21.990Z,20.73
2022-12-11T13:57:03.389Z,20.30
2022-12-11T13:59:36.139Z,19.13
2022-12-11T14:02:32.274Z,19.40
2022-12-11T14:05:01.912Z,19.00
2022-12-11T14:07:32.133Z,19.03
2022-12-11T14:10:19.344Z,18.67
2022-12-11T14:13:01.437Z,18.20
2022-12-11T14:15:31.240Z,16.63
2022-12-11T14:17:59.350Z,17.10
2022-12-11T14:20:31.209Z,17.97
2022-12-11T14:23:20.784Z,20.77
2022-12-11T14:25:57.648Z,17.13
2022-12-11T14:28:27.693Z,16.17
2022-12-11T14:31:01.042Z,16.70
2022-12-11T14:33:32.745Z,16.73
2022-12-11T14:36:01.496Z,17.17
2022-12-11T14:38:37.667Z,17.20
2022-12-11T14:41:19.565Z,16.63
2022-12-11T14:43:50.319Z,15.87
2022-12-11T14:46:45.850Z,16.60
2022-12-11T14:49:30.627Z,15.70
2022-12-11T14:51:58.402Z,15.30
2022-12-11T14:54:35.327Z,13.57
2022-12-11T14:57:06.254Z,16.20
2022-12-11T14:59:45.833Z,14.90
2022-12-11T15:02:26.161Z,16.07
2022-12-11T15:05:27.922Z,16.07
2022-12-11T15:07:58.783Z,15.27
2022-12-11T15:10:37.891Z,15.40
2022-12-11T15:13:06.471Z,15.57
2022-12-11T15:15:46.286Z,13.40
2022-12-11T15:18:26.274Z,15.30
2022-12-11T15:21:02.442Z,15.80
2022-12-11T15:23:30.010Z,14.60
2022-12-11T15:26:01.656Z,16.00
2022-12-11T15:28:35.128Z,14.83
2022-12-11T15:31:05.257Z,15.07
2022-12-11T15:33:34.566Z,14.37
2022-12-11T15:36:06.983Z,16.50
2022-12-11T15:38:42.201Z,17.90
2022-12-11T15:41:14.293Z,17.67
2022-12-11T15:43:41.215Z,19.83
2022-12-11T15:46:07.797Z,19.57
2022-12-11T15:48:34.249Z,15.30
2022-12-11T15:51:00.744Z,17.43
2022-12-11T15:53:27.154Z,15.67
2022-12-11T15:55:53.765Z,16.70
2022-12-11T15:58:23.241Z,17.57
2022-12-11T16:00:49.958Z,15.20
2022-12-11T16:03:18.749Z,15.40
2022-12-11T16:05:45.420Z,16.77
2022-12-11T16:08:15.244Z,16.20
2022-12-11T16:10:43.526Z,16.50
2022-12-11T16:13:10.702Z,15.90
2022-12-11T16:15:39.251Z,15.20
2022-12-11T16:18:11.925Z,15.20
2022-12-11T16:20:40.901Z,16.67
2022-12-11T16:23:07.791Z,14.80
2022-12-11T16:25:36.701Z,15.67
2022-12-11T16:28:03.244Z,14.60
2022-12-11T16:30:30.167Z,16.33
2022-12-11T16:32:56.724Z,14.67
2022-12-11T16:35:23.203Z,16.40
2022-12-11T16:37:51.229Z,15.00
2022-12-11T16:40:18.354Z,15.60
2022-12-11T16:42:45.011Z,16.40
2022-12-11T16:45:17.357Z,13.93
2022-12-11T16:47:43.930Z,13.47
2022-12-11T16:50:12.037Z,12.23
2022-12-11T16:52:38.442Z,13.17
2022-12-11T16:55:05.454Z,13.50
2022-12-11T16:57:31.962Z,13.57
2022-12-11T16:59:58.460Z,13.37
2022-12-11T17:02:24.989Z,12.73
2022-12-11T17:04:54.013Z,13.87
2022-12-11T17:07:20.716Z,14.23
2022-12-11T17:09:47.185Z,12.10
2022-12-11T17:12:13.672Z,11.37
2022-12-11T17:14:40.046Z,13.40
2022-12-11T17:17:06.458Z,12.10
2022-12-11T17:19:33.159Z,12.30
2022-12-11T17:21:59.549Z,12.40
2022-12-11T17:24:26.006Z,13.33
2022-12-11T17:26:52.836Z,16.07
2022-12-11T17:29:19.902Z,16.50
2022-12-11T17:31:46.315Z,16.13
2022-12-11T17:34:12.849Z,13.83
2022-12-11T17:36:39.430Z,13.17
2022-12-11T17:39:05.843Z,12.10
2022-12-11T17:41:32.217Z,12.37
2022-12-11T17:43:58.705Z,14.20
2022-12-11T17:46:25.177Z,13.63
2022-12-11T17:48:51.662Z,15.33
2022-12-11T17:51:23.829Z,13.10
2022-12-11T17:53:51.392Z,11.57
2022-12-11T17:56:17.925Z,13.17
2022-12-11T17:58:44.395Z,12.60
2022-12-11T18:01:12.261Z,13.13
2022-12-11T18:03:39.995Z,12.07
2022-12-11T18:06:10.563Z,11.20
2022-12-11T18:08:39.352Z,10.77
2022-12-11T18:11:08.822Z,11.10
2022-12-11T18:13:35.671Z,10.80
2022-12-11T18:16:05.399Z,12.47
2022-12-11T18:18:33.006Z,13.47
2022-12-11T18:20:59.714Z,13.07
2022-12-11T18:23:26.288Z,13.10
2022-12-11T18:25:52.774Z,12.50
2022-12-11T18:28:19.335Z,12.00
2022-12-11T18:30:45.858Z,13.17
2022-12-11T18:33:13.113Z,12.97
2022-12-11T18:35:40.516Z,12.53
2022-12-11T18:38:07.134Z,13.83
2022-12-11T18:40:33.685Z,12.37
2022-12-11T18:43:00.287Z,14.17
2022-12-11T18:45:27.097Z,15.10
2022-12-11T18:47:55.630Z,16.30
2022-12-11T18:50:22.255Z,15.60
2022-12-11T18:52:52.870Z,16.70
2022-12-11T18:55:19.286Z,17.90
2022-12-11T18:57:45.807Z,16.33
2022-12-11T19:00:13.170Z,16.67
2022-12-11T19:02:39.782Z,14.07
2022-12-11T19:05:06.344Z,13.23
2022-12-11T19:07:32.755Z,14.73
2022-12-11T19:09:59.209Z,14.13
2022-12-11T19:12:25.648Z,13.20
2022-12-11T19:14:52.084Z,33.70
2022-12-11T19:17:18.594Z,20.20
2022-12-11T19:19:46.185Z,17.27
2022-12-11T19:22:14.870Z,16.30
2022-12-11T19:24:41.417Z,14.60
2022-12-11T19:27:13.223Z,11.80
2022-12-11T19:29:40.237Z,14.97
2022-12-11T19:32:06.676Z,13.20
2022-12-11T19:34:33.202Z,15.20
2022-12-11T19:36:59.870Z,13.90
2022-12-11T19:39:26.605Z,14.47
2022-12-11T19:41:53.040Z,14.23
2022-12-11T19:44:19.546Z,14.47
2022-12-11T19:46:46.062Z,13.40
2022-12-11T19:49:12.737Z,11.97
2022-12-11T19:51:41.358Z,12.53
2022-12-11T19:54:09.830Z,13.50
2022-12-11T19:56:36.429Z,13.80
2022-12-11T19:59:06.066Z,15.07
2022-12-11T20:01:34.776Z,13.40
2022-12-11T20:04:07.948Z,12.77
2022-12-11T20:06:36.123Z,13.00
2022-12-11T20:09:04.367Z,13.83
2022-12-11T20:11:32.553Z,14.50
2022-12-11T20:13:59.606Z,14.40
2022-12-11T20:16:46.245Z,13.83
2022-12-11T20:19:12.542Z,12.10
2022-12-11T20:21:40.821Z,14.27
2022-12-11T20:24:07.673Z,13.70
2022-12-11T20:26:36.421Z,13.60
2022-12-11T20:29:05.253Z,14.27
2022-12-11T20:31:31.965Z,15.20
2022-12-11T20:33:58.536Z,13.57
2022-12-11T20:36:25.713Z,15.37
2022-12-11T20:38:52.852Z,16.40
2022-12-11T20:41:21.835Z,16.57
2022-12-11T20:43:53.908Z,15.87
2022-12-11T20:46:23.212Z,13.80
2022-12-11T20:48:52.111Z,12.63
2022-12-11T20:51:26.109Z,13.40
2022-12-11T20:54:01.137Z,13.00
2022-12-11T20:56:31.474Z,12.80
2022-12-11T20:58:59.515Z,11.70
2022-12-11T21:01:28.583Z,12.00
2022-12-11T21:03:55.160Z,11.70
2022-12-11T21:06:30.728Z,11.20
2022-12-11T21:09:01.673Z,12.50
2022-12-11T21:11:28.478Z,11.77
2022-12-11T21:13:55.122Z,10.63
2022-12-11T21:16:22.120Z,11.80
2022-12-11T21:18:48.985Z,11.70
2022-12-11T21:21:16.366Z,12.37
2022-12-11T21:23:43.057Z,11.57
2022-12-11T21:26:10.264Z,11.27
2022-12-11T21:28:36.950Z,11.73
2022-12-11T21:31:06.020Z,12.27
2022-12-11T21:33:32.529Z,12.23
2022-12-11T21:36:00.609Z,12.37
2022-12-11T21:38:28.002Z,12.27
2022-12-11T21:40:55.450Z,12.80
2022-12-11T21:43:23.487Z,13.87
2022-12-11T21:46:05.653Z,11.57
2022-12-11T21:48:32.854Z,13.50
2022-12-11T21:51:08.402Z,13.97
2022-12-11T21:53:35.343Z,13.80
2022-12-11T21:56:05.743Z,14.50
2022-12-11T21:58:32.199Z,14.10
2022-12-11T22:00:58.800Z,15.07
2022-12-11T22:03:25.199Z,15.07
2022-12-11T22:05:51.708Z,14.80
2022-12-11T22:08:18.591Z,15.00
2022-12-11T22:10:45.238Z,16.20
2022-12-11T22:13:11.725Z,16.50
2022-12-11T22:15:38.372Z,16.80
2022-12-11T22:18:04.948Z,17.50
2022-12-11T22:20:31.653Z,14.30
2022-12-11T22:22:58.357Z,14.63
2022-12-11T22:25:24.811Z,16.60
2022-12-11T22:27:51.226Z,14.97
2022-12-11T22:30:17.741Z,15.10
2022-12-11T22:32:45.161Z,12.90
2022-12-11T22:35:11.869Z,12.43
2022-12-11T22:37:38.495Z,12.30
2022-12-11T22:40:05.995Z,11.70
2022-12-11T22:42:32.431Z,12.07
2022-12-11T22:44:58.961Z,13.07
2022-12-11T22:47:25.494Z,12.97
2022-12-11T22:49:51.892Z,12.67
2022-12-11T22:52:18.399Z,12.90
2022-12-11T22:54:45.123Z,12.30
2022-12-11T22:57:11.652Z,13.07
2022-12-11T22:59:38.058Z,13.10
2022-12-11T23:02:04.569Z,13.67
2022-12-11T23:04:31.074Z,14.07
2022-12-11T23:06:58.133Z,13.10
2022-12-11T23:09:24.775Z,14.30
2022-12-11T23:11:51.481Z,15.80
2022-12-11T23:14:18.734Z,14.27
2022-12-11T23:16:45.307Z,14.63
2022-12-11T23:19:12.454Z,13.77
2022-12-11T23:21:39.284Z,12.93
2022-12-11T23:24:06.722Z,12.87
2022-12-11T23:26:33.230Z,13.43
2022-12-11T23:28:59.759Z,14.40
2022-12-11T23:31:27.340Z,13.17
2022-12-11T23:33:54.050Z,13.87
2022-12-11T23:36:20.530Z,12.87
2022-12-11T23:38:52.577Z,14.13
2022-12-11T23:41:21.015Z,13.90
2022-12-11T23:43:47.467Z,12.90
2022-12-11T23:46:18.539Z,13.30
2022-12-11T23:48:45.097Z,12.80
2022-12-11T23:51:15.499Z,13.27
2022-12-11T23:53:42.395Z,15.30
2022-12-11T23:56:13.490Z,14.83
2022-12-11T23:58:40.151Z,14.63
